Time;durP1;ratioP1;P1;durP2;ratioP2;P2;SDS_P1;SDS_P2;PMS_P1;PMS_P2;Temp;Humidity;BMP_temperature;BMP_pressure;BME280_temperature;BME280_humidity;BME280_pressure;Samples;Min_cycle;Max_cycle;Signal;HPM_P1;HPM_P2
2021/06/20 00:00:31;;;;;;;19.73;6.32;;;29.50;49.00;;;;;;10130717;28;20526;-55
2021/06/20 00:05:36;;;;;;;23.40;6.07;;;29.40;49.20;;;;;;10131109;28;20045;-50
2021/06/20 00:10:28;;;;;;;16.08;5.63;;;29.40;49.20;;;;;;10129619;28;20044;-49
2021/06/20 00:15:20;;;;;;;22.25;5.18;;;29.40;49.20;;;;;;10130240;28;20029;-54
2021/06/20 00:20:14;;;;;;;16.60;6.35;;;29.30;49.10;;;;;;10129900;28;20032;-54
2021/06/20 00:25:06;;;;;;;15.32;4.90;;;29.10;49.70;;;;;;10130605;28;20032;-51
2021/06/20 00:29:57;;;;;;;24.27;5.75;;;28.90;50.00;;;;;;10129241;28;20047;-51
2021/06/20 00:34:48;;;;;;;25.63;6.55;;;28.80;50.30;;;;;;10126766;28;20404;-54
2021/06/20 00:39:38;;;;;;;19.00;6.30;;;28.70;50.70;;;;;;10129386;28;20025;-52
2021/06/20 00:44:29;;;;;;;17.55;6.10;;;28.60;50.90;;;;;;10127256;28;20021;-50
2021/06/20 00:49:20;;;;;;;16.95;5.28;;;28.50;51.30;;;;;;10128315;28;20029;-52
2021/06/20 00:54:12;;;;;;;13.52;5.07;;;28.20;52.70;;;;;;10128961;28;20557;-58
2021/06/20 00:59:03;;;;;;;12.15;5.63;;;28.00;53.80;;;;;;10126523;28;20503;-55
2021/06/20 01:03:55;;;;;;;11.73;5.03;;;27.80;54.60;;;;;;10128364;28;20036;-57
2021/06/20 01:08:46;;;;;;;16.23;4.30;;;27.70;55.30;;;;;;10126543;28;20052;-54
2021/06/20 01:13:36;;;;;;;9.63;4.50;;;27.60;55.80;;;;;;10127751;28;20028;-58
2021/06/20 01:18:27;;;;;;;5.15;3.45;;;27.50;56.10;;;;;;10128736;28;20668;-54
2021/06/20 01:23:18;;;;;;;4.25;2.50;;;27.50;56.10;;;;;;10125364;28;20032;-54
2021/06/20 01:28:10;;;;;;;6.30;2.83;;;27.60;55.30;;;;;;10123625;28;20174;-59
2021/06/20 01:33:02;;;;;;;8.15;2.35;;;27.80;54.30;;;;;;10126327;28;20526;-58
2021/06/20 01:37:54;;;;;;;6.00;2.47;;;27.80;53.80;;;;;;10125588;28;20108;-55
2021/06/20 01:42:46;;;;;;;5.10;2.40;;;27.70;53.30;;;;;;10125853;28;20399;-59
2021/06/20 01:47:37;;;;;;;5.28;2.72;;;27.80;53.00;;;;;;10124627;28;20040;-56
2021/06/20 01:52:28;;;;;;;6.95;2.35;;;27.90;52.60;;;;;;10126305;28;20051;-51
2021/06/20 01:57:20;;;;;;;5.82;2.83;;;28.00;52.40;;;;;;10126780;28;20043;-50
2021/06/20 02:02:11;;;;;;;5.70;1.90;;;28.00;52.30;;;;;;10124178;28;20519;-52
2021/06/20 02:07:02;;;;;;;4.75;1.83;;;28.00;52.20;;;;;;10126407;28;20056;-56
2021/06/20 02:11:53;;;;;;;4.15;1.80;;;27.90;52.10;;;;;;10125284;28;20021;-51
2021/06/20 02:16:44;;;;;;;5.68;2.15;;;27.80;51.90;;;;;;10124226;28;20036;-56
2021/06/20 02:21:34;;;;;;;3.33;1.33;;;27.80;51.40;;;;;;10125760;28;20020;-52
2021/06/20 02:26:25;;;;;;;6.05;1.48;;;27.80;50.90;;;;;;10123833;28;20162;-48
2021/06/20 02:31:16;;;;;;;5.97;2.10;;;27.80;50.40;;;;;;10124607;28;20031;-52
2021/06/20 02:36:07;;;;;;;3.88;1.23;;;27.80;50.10;;;;;;10124013;28;20526;-51
2021/06/20 02:40:57;;;;;;;3.22;1.35;;;27.60;49.50;;;;;;10123414;28;20491;-52
2021/06/20 02:45:48;;;;;;;3.85;1.67;;;27.60;49.10;;;;;;10124879;28;20083;-55
2021/06/20 02:50:39;;;;;;;7.05;1.65;;;27.70;48.40;;;;;;10122904;28;20236;-52
2021/06/20 02:55:29;;;;;;;4.05;2.20;;;27.80;47.80;;;;;;10124261;28;20032;-53
2021/06/20 03:00:20;;;;;;;4.30;1.75;;;27.70;47.90;;;;;;10123725;28;20042;-54
2021/06/20 03:05:11;;;;;;;5.68;2.30;;;27.60;48.20;;;;;;10120431;28;20048;-51
2021/06/20 03:10:03;;;;;;;4.80;2.20;;;27.50;48.60;;;;;;10122805;28;20040;-58
2021/06/20 03:14:54;;;;;;;5.85;1.73;;;27.40;49.40;;;;;;10125846;28;20028;-58
2021/06/20 03:19:46;;;;;;;6.88;2.30;;;27.40;49.80;;;;;;10121568;28;20016;-55
2021/06/20 03:24:40;;;;;;;6.35;2.45;;;27.40;50.20;;;;;;10115599;28;20037;-56
2021/06/20 03:29:31;;;;;;;7.00;2.00;;;27.20;51.40;;;;;;10128096;28;20057;-59
2021/06/20 03:34:22;;;;;;;7.00;2.47;;;27.20;51.90;;;;;;10124268;28;20478;-52
2021/06/20 03:39:13;;;;;;;2.97;1.55;;;27.00;52.30;;;;;;10121960;28;20146;-59
2021/06/20 03:44:06;;;;;;;7.65;1.88;;;26.90;52.90;;;;;;10118602;28;20115;-56
2021/06/20 03:48:57;;;;;;;3.83;2.03;;;26.60;53.50;;;;;;10122461;28;20036;-54
2021/06/20 03:53:48;;;;;;;2.45;1.17;;;26.70;53.60;;;;;;10120889;28;20021;-51
2021/06/20 03:58:38;;;;;;;4.28;1.40;;;26.50;54.10;;;;;;10121652;28;20665;-56
2021/06/20 04:03:30;;;;;;;2.53;1.33;;;26.30;54.40;;;;;;10121831;28;20036;-51
2021/06/20 04:08:20;;;;;;;5.07;2.35;;;26.40;54.40;;;;;;10120009;28;20045;-54
2021/06/20 04:13:11;;;;;;;4.35;2.30;;;26.30;54.40;;;;;;10123735;28;20497;-51
2021/06/20 04:18:02;;;;;;;3.35;1.40;;;26.30;54.40;;;;;;10122406;28;20025;-55
2021/06/20 04:22:53;;;;;;;3.85;1.88;;;26.40;54.40;;;;;;10119759;28;20709;-52
2021/06/20 04:27:46;;;;;;;4.45;1.75;;;26.40;54.50;;;;;;10128272;28;20071;-49
2021/06/20 04:32:39;;;;;;;4.13;1.70;;;26.20;55.70;;;;;;10128140;28;20135;-50
2021/06/20 04:37:29;;;;;;;4.28;1.70;;;26.20;55.00;;;;;;10130302;28;20058;-54
2021/06/20 04:42:22;;;;;;;2.33;1.40;;;26.20;54.90;;;;;;10129250;28;20158;-58
2021/06/20 04:47:15;;;;;;;2.95;1.55;;;26.20;54.70;;;;;;10126975;28;20535;-50
2021/06/20 04:52:08;;;;;;;3.90;1.92;;;26.20;54.80;;;;;;10128428;28;20067;-53
2021/06/20 04:56:59;;;;;;;8.50;1.85;;;26.10;55.00;;;;;;10125352;28;20020;-56
2021/06/20 05:01:49;;;;;;;1.98;1.40;;;26.00;55.40;;;;;;10127192;28;20698;-52
2021/06/20 05:06:40;;;;;;;4.15;1.52;;;26.10;55.10;;;;;;10128262;28;20161;-56
2021/06/20 05:11:31;;;;;;;1.88;1.38;;;26.20;55.00;;;;;;10126819;28;20260;-51
2021/06/20 05:16:23;;;;;;;3.05;1.50;;;26.20;55.10;;;;;;10132362;28;20632;-50
2021/06/20 05:21:13;;;;;;;2.33;1.10;;;26.30;54.80;;;;;;10124565;28;20036;-53
2021/06/20 05:26:04;;;;;;;3.65;1.42;;;26.40;54.60;;;;;;10125693;28;20032;-56
2021/06/20 05:30:55;;;;;;;4.50;1.80;;;26.40;54.50;;;;;;10127700;28;20021;-55
2021/06/20 05:35:47;;;;;;;4.18;1.38;;;26.30;54.60;;;;;;10122188;28;20020;-54
2021/06/20 05:40:38;;;;;;;2.83;1.40;;;26.30;54.80;;;;;;10124100;28;20391;-58
2021/06/20 05:45:29;;;;;;;2.33;1.10;;;26.40;54.50;;;;;;10126102;28;20029;-49
2021/06/20 05:50:20;;;;;;;2.55;1.42;;;26.40;54.50;;;;;;10125167;28;20047;-50
2021/06/20 05:55:11;;;;;;;3.10;1.63;;;26.50;54.10;;;;;;10125313;28;20020;-49
2021/06/20 06:00:04;;;;;;;3.03;1.70;;;26.50;53.90;;;;;;10125263;28;20099;-51
2021/06/20 06:04:54;;;;;;;3.33;1.27;;;26.30;54.30;;;;;;10124408;28;20041;-56
2021/06/20 06:09:45;;;;;;;4.95;1.10;;;26.40;54.10;;;;;;10125419;28;20610;-53
2021/06/20 06:14:36;;;;;;;3.42;1.10;;;26.50;53.70;;;;;;10121333;28;20021;-58
2021/06/20 06:19:27;;;;;;;5.13;1.50;;;26.60;53.60;;;;;;10125743;28;20028;-53
2021/06/20 06:24:17;;;;;;;5.50;1.38;;;26.70;53.40;;;;;;10123846;28;20024;-50
2021/06/20 06:29:08;;;;;;;1.88;1.30;;;26.60;53.40;;;;;;10119846;28;20041;-51
2021/06/20 06:33:59;;;;;;;2.33;1.27;;;26.80;53.00;;;;;;10130557;28;20032;-57
2021/06/20 06:38:50;;;;;;;3.13;1.15;;;26.80;52.90;;;;;;10121547;28;20012;-56
2021/06/20 06:43:41;;;;;;;3.67;1.40;;;26.80;52.80;;;;;;10122965;28;20521;-51
2021/06/20 06:48:31;;;;;;;3.90;1.55;;;26.90;52.70;;;;;;10122734;28;20434;-51
2021/06/20 06:53:22;;;;;;;2.05;1.50;;;26.80;52.60;;;;;;10122281;28;20441;-57
2021/06/20 06:58:14;;;;;;;4.25;2.42;;;26.60;52.90;;;;;;10124678;28;20039;-53
2021/06/20 07:03:05;;;;;;;4.35;1.23;;;26.70;52.60;;;;;;10122546;28;20021;-55
2021/06/20 07:07:55;;;;;;;2.33;1.20;;;27.00;52.10;;;;;;10123301;28;20040;-55
2021/06/20 07:12:46;;;;;;;6.18;1.77;;;27.30;51.60;;;;;;10125362;28;20401;-57
2021/06/20 07:17:38;;;;;;;4.07;1.42;;;27.40;51.60;;;;;;10122793;28;20499;-56
2021/06/20 07:22:29;;;;;;;3.03;1.33;;;27.60;51.20;;;;;;10122808;28;20395;-51
2021/06/20 07:27:20;;;;;;;2.05;1.63;;;27.40;51.30;;;;;;10119718;28;20024;-52
2021/06/20 07:32:10;;;;;;;4.25;1.40;;;27.50;51.20;;;;;;10123232;28;20028;-51
2021/06/20 07:37:02;;;;;;;4.78;1.60;;;27.60;51.30;;;;;;10121594;28;20024;-56
2021/06/20 07:41:53;;;;;;;3.47;2.13;;;27.70;50.90;;;;;;10117024;28;20097;-55
2021/06/20 07:46:44;;;;;;;21.90;14.73;;;27.50;50.90;;;;;;10120400;28;20093;-57
2021/06/20 07:51:36;;;;;;;5.25;2.20;;;27.50;50.60;;;;;;10120762;28;20037;-52
2021/06/20 07:56:27;;;;;;;5.75;1.92;;;27.10;51.00;;;;;;10119613;28;20032;-54
2021/06/20 08:01:18;;;;;;;2.38;1.92;;;27.20;50.90;;;;;;10122483;28;20051;-56
2021/06/20 08:06:08;;;;;;;4.07;1.20;;;27.50;50.40;;;;;;10126288;28;20067;-53
2021/06/20 08:11:01;;;;;;;2.17;1.40;;;27.70;50.00;;;;;;10129035;28;20146;-54
2021/06/20 08:15:51;;;;;;;2.63;1.60;;;27.60;50.10;;;;;;10127527;28;20375;-53
2021/06/20 08:20:42;;;;;;;1.73;1.00;;;27.50;50.30;;;;;;10125545;28;20665;-58
2021/06/20 08:25:33;;;;;;;2.40;1.27;;;27.70;50.00;;;;;;10127731;28;20268;-55
2021/06/20 08:30:24;;;;;;;2.60;1.60;;;27.90;49.80;;;;;;10125291;28;20322;-54
2021/06/20 08:35:17;;;;;;;3.40;1.50;;;27.90;50.00;;;;;;10129400;28;20833;-60
2021/06/20 08:40:08;;;;;;;2.27;1.20;;;27.60;50.00;;;;;;10129127;28;20032;-59
2021/06/20 08:44:59;;;;;;;5.63;2.35;;;27.60;50.20;;;;;;10123960;28;20028;-55
2021/06/20 08:49:50;;;;;;;4.20;1.85;;;27.80;50.10;;;;;;10128122;28;20064;-56
2021/06/20 08:55:02;;;;;;;4.47;1.70;;;27.80;50.30;;;;;;10127010;28;20043;-54
2021/06/20 08:59:52;;;;;;;5.22;1.92;;;27.70;50.70;;;;;;10127981;28;20253;-55
2021/06/20 09:04:53;;;;;;;3.50;2.00;;;27.70;51.00;;;;;;10128778;28;20036;-52
2021/06/20 09:09:45;;;;;;;4.68;1.45;;;27.60;51.30;;;;;;10124427;28;20155;-59
2021/06/20 09:14:44;;;;;;;4.78;1.42;;;27.50;51.70;;;;;;10127989;28;20124;-53
2021/06/20 09:19:35;;;;;;;5.78;2.15;;;27.70;51.50;;;;;;10121228;28;20031;-54
2021/06/20 09:24:26;;;;;;;3.33;1.30;;;28.10;51.40;;;;;;10127685;28;20032;-56
2021/06/20 09:29:31;;;;;;;3.92;2.20;;;28.50;51.00;;;;;;10126562;28;20032;-57
2021/06/20 09:34:22;;;;;;;3.92;2.20;;;28.90;50.40;;;;;;10124673;28;20033;-56
2021/06/20 09:39:23;;;;;;;3.95;2.38;;;29.00;50.30;;;;;;10130508;28;20029;-56
2021/06/20 09:44:14;;;;;;;6.28;3.20;;;28.90;50.40;;;;;;10120558;28;20109;-58
2021/06/20 09:49:05;;;;;;;5.47;2.10;;;28.70;50.70;;;;;;10126999;28;20085;-57
2021/06/20 09:53:56;;;;;;;4.68;1.80;;;28.60;50.60;;;;;;10125348;28;20038;-63
2021/06/20 09:59:04;;;;;;;5.32;1.77;;;28.70;50.10;;;;;;10124582;28;20331;-56
2021/06/20 10:03:56;;;;;;;3.13;1.58;;;28.70;49.50;;;;;;10126987;28;20032;-60
2021/06/20 10:08:47;;;;;;;1.63;1.17;;;28.60;49.20;;;;;;10123508;28;20048;-56
2021/06/20 10:13:38;;;;;;;2.53;1.20;;;28.30;49.00;;;;;;10124215;28;20031;-58
2021/06/20 10:18:29;;;;;;;2.72;1.67;;;28.60;48.20;;;;;;10127030;28;20024;-54
2021/06/20 10:23:25;;;;;;;4.43;1.30;;;28.80;47.50;;;;;;10121209;28;20020;-59
2021/06/20 10:28:19;;;;;;;1.80;0.93;;;28.80;47.20;;;;;;10123528;28;20104;-54
2021/06/20 10:33:18;;;;;;;3.10;1.45;;;28.70;47.30;;;;;;10115985;28;20257;-58
2021/06/20 10:38:29;;;;;;;1.85;1.10;;;29.00;47.00;;;;;;10122747;28;20377;-57
2021/06/20 10:43:20;;;;;;;3.28;1.38;;;29.10;46.90;;;;;;10123679;28;20068;-53
2021/06/20 10:48:15;;;;;;;2.95;1.30;;;29.10;46.70;;;;;;10123759;28;20131;-55
2021/06/20 10:53:06;;;;;;;4.97;1.23;;;29.10;46.70;;;;;;10125756;28;20556;-58
2021/06/20 10:57:57;;;;;;;3.97;1.45;;;29.00;46.70;;;;;;10121672;28;20021;-54
2021/06/20 11:02:48;;;;;;;3.53;1.90;;;29.20;46.50;;;;;;10123577;28;20024;-57
2021/06/20 11:07:38;;;;;;;2.05;1.30;;;29.30;46.30;;;;;;10122789;28;20117;-58
2021/06/20 11:12:29;;;;;;;5.20;2.83;;;29.20;46.20;;;;;;10121204;28;20028;-55
2021/06/20 11:17:21;;;;;;;3.55;1.67;;;29.30;46.20;;;;;;10124238;28;20024;-54
2021/06/20 11:22:14;;;;;;;3.20;1.77;;;29.40;46.00;;;;;;10114932;28;20056;-56
2021/06/20 11:27:13;;;;;;;5.47;1.42;;;29.60;45.70;;;;;;10121570;28;20033;-52
2021/06/20 11:32:05;;;;;;;8.10;2.50;;;29.50;45.10;;;;;;10124324;28;20529;-53
2021/06/20 11:36:56;;;;;;;7.32;3.20;;;29.50;45.40;;;;;;10125582;28;20040;-56
2021/06/20 11:41:50;;;;;;;3.63;1.52;;;29.80;45.00;;;;;;10131282;28;20102;-53
2021/06/20 11:46:42;;;;;;;3.83;2.40;;;29.90;44.60;;;;;;10131138;28;20032;-57
2021/06/20 11:51:36;;;;;;;3.53;1.88;;;30.10;44.50;;;;;;10129321;28;20490;-55
2021/06/20 11:56:28;;;;;;;3.53;1.45;;;30.20;44.60;;;;;;10131516;28;20024;-56
2021/06/20 12:01:18;;;;;;;3.15;1.63;;;30.40;44.50;;;;;;10130056;28;20040;-54
2021/06/20 12:06:09;;;;;;;4.82;1.58;;;30.70;44.30;;;;;;10130267;28;20252;-55
2021/06/20 12:11:01;;;;;;;7.88;2.08;;;30.80;44.40;;;;;;10129320;28;20100;-57
2021/06/20 12:16:01;;;;;;;6.68;1.50;;;30.90;44.40;;;;;;10127208;28;20550;-52
2021/06/20 12:20:53;;;;;;;4.53;1.40;;;31.50;44.30;;;;;;10129403;28;20421;-52
2021/06/20 12:25:45;;;;;;;6.47;2.63;;;31.20;44.40;;;;;;10126998;28;20392;-55
2021/06/20 12:30:39;;;;;;;6.20;1.60;;;31.60;44.40;;;;;;10130457;28;20066;-53
2021/06/20 12:35:31;;;;;;;6.78;2.13;;;32.10;44.20;;;;;;10128718;28;20114;-51
2021/06/20 12:40:25;;;;;;;9.75;2.50;;;32.80;43.60;;;;;;10125035;28;20021;-52
2021/06/20 12:45:24;;;;;;;5.95;2.03;;;33.40;43.40;;;;;;10133075;28;20103;-53
2021/06/20 12:50:24;;;;;;;15.23;2.67;;;33.90;42.40;;;;;;10127747;28;20036;-53
2021/06/20 12:55:17;;;;;;;7.28;2.30;;;34.80;41.30;;;;;;10128649;28;20481;-52
2021/06/20 13:00:09;;;;;;;10.85;2.22;;;34.60;40.90;;;;;;10127440;28;20032;-57
2021/06/20 13:05:00;;;;;;;5.38;2.05;;;34.30;41.10;;;;;;10129470;28;20525;-55
2021/06/20 13:09:50;;;;;;;8.93;2.77;;;35.30;39.80;;;;;;10127791;28;20028;-58
2021/06/20 13:14:41;;;;;;;7.97;2.30;;;35.00;40.20;;;;;;10125278;28;20268;-59
2021/06/20 13:19:32;;;;;;;7.72;2.53;;;34.00;40.10;;;;;;10132063;28;20056;-57
2021/06/20 13:24:22;;;;;;;11.70;2.53;;;33.00;41.00;;;;;;10127957;28;20032;-56
2021/06/20 13:29:14;;;;;;;10.52;3.33;;;32.30;41.30;;;;;;10124285;28;20040;-53
2021/06/20 13:34:05;;;;;;;9.25;2.28;;;31.90;41.40;;;;;;10126771;28;20151;-52
2021/06/20 13:38:56;;;;;;;10.23;3.15;;;31.50;41.90;;;;;;10122480;28;20471;-51
2021/06/20 13:43:47;;;;;;;10.50;3.10;;;31.10;42.50;;;;;;10126257;28;20775;-55
2021/06/20 13:48:38;;;;;;;9.85;3.58;;;31.10;42.60;;;;;;10126495;28;20028;-54
2021/06/20 13:53:29;;;;;;;11.95;4.03;;;31.00;42.40;;;;;;10123186;28;20020;-56
2021/06/20 13:58:20;;;;;;;9.90;2.65;;;30.80;42.80;;;;;;10127178;28;20032;-55
2021/06/20 14:03:11;;;;;;;8.93;2.92;;;30.50;43.40;;;;;;10122560;28;20410;-57
2021/06/20 14:08:02;;;;;;;13.07;4.30;;;30.40;43.60;;;;;;10121943;28;20053;-52
2021/06/20 14:12:53;;;;;;;7.25;2.50;;;30.30;43.80;;;;;;10125095;28;20035;-54
2021/06/20 14:17:44;;;;;;;13.20;2.45;;;30.00;44.50;;;;;;10121026;28;20072;-56
2021/06/20 14:22:34;;;;;;;6.85;3.10;;;29.80;44.80;;;;;;10125475;28;20024;-60
2021/06/20 14:27:25;;;;;;;8.32;2.38;;;29.50;45.10;;;;;;10125625;28;20029;-55
2021/06/20 14:32:16;;;;;;;7.70;2.92;;;29.50;45.20;;;;;;10121906;28;20032;-50
2021/06/20 14:37:07;;;;;;;11.95;3.10;;;29.50;45.30;;;;;;10124606;28;20506;-55
2021/06/20 14:41:57;;;;;;;7.00;2.63;;;29.30;45.80;;;;;;10123092;28;20058;-53
2021/06/20 14:46:48;;;;;;;12.68;3.65;;;29.20;46.40;;;;;;10124126;28;20044;-54
2021/06/20 14:51:39;;;;;;;9.60;2.70;;;29.10;47.00;;;;;;10126352;28;20028;-55
2021/06/20 14:56:30;;;;;;;13.75;4.53;;;28.90;47.60;;;;;;10121155;28;20025;-55
2021/06/20 15:01:21;;;;;;;8.55;3.17;;;28.90;47.70;;;;;;10124411;28;20499;-54
2021/06/20 15:06:11;;;;;;;11.52;2.97;;;28.90;48.10;;;;;;10125204;28;20604;-53
2021/06/20 15:11:02;;;;;;;8.82;3.28;;;28.80;48.60;;;;;;10121532;28;20099;-49
2021/06/20 15:15:53;;;;;;;10.02;3.78;;;28.70;49.10;;;;;;10125419;28;20570;-57
2021/06/20 15:20:45;;;;;;;10.63;3.03;;;28.50;49.60;;;;;;10124482;28;20036;-58
2021/06/20 15:25:36;;;;;;;15.90;5.80;;;28.30;50.50;;;;;;10124900;28;20057;-55
2021/06/20 15:30:27;;;;;;;8.95;3.08;;;28.20;51.30;;;;;;10125761;28;20067;-56
2021/06/20 15:35:20;;;;;;;11.25;5.07;;;28.30;51.60;;;;;;10122289;28;20232;-53
2021/06/20 15:40:11;;;;;;;14.60;3.85;;;27.90;52.60;;;;;;10122747;28;20074;-59
2021/06/20 15:45:06;;;;;;;8.35;3.72;;;27.40;53.70;;;;;;10131090;28;20540;-56
2021/06/20 15:49:56;;;;;;;;;;;27.10;55.60;;;;;;10122399;28;20039;-55
2021/06/20 15:54:54;;;;;;;13.38;3.83;;;26.20;57.90;;;;;;10123319;28;20267;-56
2021/06/20 15:59:51;;;;;;;9.23;3.67;;;25.60;58.70;;;;;;10120559;28;20042;-54
2021/06/20 16:04:41;;;;;;;16.65;4.57;;;25.70;58.00;;;;;;10120368;28;20319;-59
2021/06/20 16:09:32;;;;;;;16.95;5.57;;;25.40;58.40;;;;;;10122774;28;20075;-53
2021/06/20 16:14:23;;;;;;;12.02;3.50;;;25.20;59.60;;;;;;10121113;28;20029;-53
2021/06/20 16:19:14;;;;;;;14.48;4.65;;;25.90;59.10;;;;;;10124633;28;20020;-52
2021/06/20 16:24:06;;;;;;;12.07;3.58;;;26.10;59.20;;;;;;10128383;28;20071;-54
2021/06/20 16:28:57;;;;;;;8.45;3.45;;;26.10;60.10;;;;;;10127133;28;20123;-51
2021/06/20 16:33:48;;;;;;;11.10;3.00;;;26.10;60.10;;;;;;10130249;28;20025;-54
2021/06/20 16:38:39;;;;;;;11.43;4.32;;;26.30;60.00;;;;;;10125560;28;20028;-54
2021/06/20 16:43:30;;;;;;;15.40;6.25;;;26.20;61.20;;;;;;10129530;28;21130;-54
2021/06/20 16:48:21;;;;;;;17.55;4.03;;;26.10;61.80;;;;;;10130010;28;20025;-58
2021/06/20 16:53:12;;;;;;;11.88;3.65;;;25.90;62.00;;;;;;10127051;28;20024;-54
2021/06/20 16:58:02;;;;;;;15.38;3.45;;;26.00;61.70;;;;;;10127160;28;20037;-54
2021/06/20 17:02:53;;;;;;;13.60;4.72;;;25.80;62.10;;;;;;10128194;28;20028;-53
2021/06/20 17:07:44;;;;;;;11.32;3.10;;;25.70;62.50;;;;;;10123490;28;20033;-55
2021/06/20 17:12:35;;;;;;;6.20;2.65;;;25.70;62.50;;;;;;10128385;28;20089;-57
2021/06/20 17:17:25;;;;;;;16.27;3.05;;;25.80;62.40;;;;;;10128420;28;20410;-55
2021/06/20 17:22:16;;;;;;;9.45;2.97;;;25.60;62.80;;;;;;10126155;28;20032;-52
2021/06/20 17:27:07;;;;;;;19.13;5.47;;;25.40;63.40;;;;;;10127200;28;20037;-57
2021/06/20 17:31:59;;;;;;;10.50;3.63;;;25.40;63.70;;;;;;10123548;28;20029;-53
2021/06/20 17:36:50;;;;;;;17.08;3.15;;;25.30;63.90;;;;;;10125249;28;20119;-56
2021/06/20 17:41:41;;;;;;;9.52;2.95;;;25.00;64.50;;;;;;10122791;28;20485;-54
2021/06/20 17:46:32;;;;;;;7.65;2.63;;;25.20;64.50;;;;;;10123703;28;20041;-53
2021/06/20 17:51:23;;;;;;;8.00;3.00;;;25.20;64.70;;;;;;10124827;28;20032;-60
2021/06/20 17:56:14;;;;;;;15.20;5.00;;;25.00;65.40;;;;;;10125826;28;20756;-57
2021/06/20 18:01:05;;;;;;;9.93;3.13;;;24.90;65.50;;;;;;10122490;28;20016;-58
2021/06/20 18:05:56;;;;;;;15.68;4.63;;;24.70;65.60;;;;;;10125191;28;20105;-61
2021/06/20 18:10:47;;;;;;;11.07;3.28;;;24.40;66.70;;;;;;10125954;28;20356;-54
2021/06/20 18:15:38;;;;;;;7.93;3.78;;;23.90;68.10;;;;;;10127407;28;20483;-62
2021/06/20 18:20:29;;;;;;;7.93;2.67;;;23.60;69.00;;;;;;10128785;28;20024;-58
2021/06/20 18:25:20;;;;;;;5.43;1.38;;;23.70;69.00;;;;;;10123991;28;20040;-63
2021/06/20 18:30:11;;;;;;;9.38;1.95;;;22.80;70.40;;;;;;10126638;28;20119;-56
2021/06/20 18:35:03;;;;;;;12.30;2.17;;;21.40;75.30;;;;;;10125611;28;20120;-60
2021/06/20 18:39:53;;;;;;;5.85;1.92;;;20.50;77.50;;;;;;10124323;28;20048;-56
2021/06/20 18:44:44;;;;;;;7.85;2.13;;;20.40;77.50;;;;;;10130456;28;20016;-65
2021/06/20 18:49:35;;;;;;;5.07;2.10;;;20.80;77.00;;;;;;10123716;28;20095;-59
2021/06/20 18:54:26;;;;;;;8.05;1.50;;;21.10;76.70;;;;;;10124148;28;20120;-65
2021/06/20 18:59:17;;;;;;;10.20;2.20;;;21.10;76.90;;;;;;10125337;28;20111;-66
2021/06/20 19:04:08;;;;;;;9.13;2.35;;;21.40;76.80;;;;;;10123911;28;20648;-59
2021/06/20 19:09:00;;;;;;;5.43;1.55;;;21.40;77.20;;;;;;10126533;28;20044;-59
2021/06/20 19:13:50;;;;;;;9.35;1.77;;;21.20;78.40;;;;;;10125466;28;20124;-62
2021/06/20 19:18:41;;;;;;;7.90;2.10;;;21.50;78.10;;;;;;10125124;28;20143;-55
2021/06/20 19:23:32;;;;;;;6.50;2.25;;;21.80;78.10;;;;;;10125237;28;20123;-64
2021/06/20 19:28:23;;;;;;;4.63;1.48;;;21.90;78.60;;;;;;10125457;28;20540;-58
2021/06/20 19:33:14;;;;;;;7.78;2.85;;;21.90;79.20;;;;;;10120881;28;20073;-62
2021/06/20 19:38:05;;;;;;;3.75;1.48;;;22.30;79.70;;;;;;10127421;28;20036;-61
2021/06/20 19:42:56;;;;;;;4.57;1.83;;;21.90;80.70;;;;;;10125507;28;20047;-63
2021/06/20 19:47:46;;;;;;;10.20;2.30;;;21.90;81.50;;;;;;10124259;28;20072;-58
2021/06/20 19:52:38;;;;;;;4.97;2.53;;;22.00;82.00;;;;;;10124967;28;20459;-58
2021/06/20 19:57:28;;;;;;;5.28;1.42;;;22.10;82.60;;;;;;10124881;28;20435;-65
2021/06/20 20:02:19;;;;;;;3.75;1.52;;;22.10;83.20;;;;;;10130738;28;20029;-61
2021/06/20 20:07:09;;;;;;;20.45;6.45;;;22.40;82.80;;;;;;10127306;28;20044;-61
2021/06/20 20:12:00;;;;;;;4.32;3.30;;;22.20;83.40;;;;;;10126936;28;20364;-59
2021/06/20 20:16:51;;;;;;;7.78;2.15;;;22.10;83.40;;;;;;10128390;28;20331;-66
2021/06/20 20:21:42;;;;;;;5.00;2.60;;;22.10;84.00;;;;;;10126566;28;20024;-64
2021/06/20 20:26:33;;;;;;;6.72;2.47;;;22.30;84.10;;;;;;10129559;28;20112;-60
2021/06/20 20:31:24;;;;;;;7.13;1.58;;;22.10;84.60;;;;;;10131665;28;20470;-69
2021/06/20 20:36:16;;;;;;;8.23;1.65;;;22.20;84.40;;;;;;10128902;28;20205;-58
2021/06/20 20:41:07;;;;;;;6.53;2.20;;;22.20;84.50;;;;;;10128228;28;20024;-60
2021/06/20 20:45:58;;;;;;;5.10;1.60;;;22.20;84.90;;;;;;10129834;28;20029;-58
2021/06/20 20:50:48;;;;;;;10.52;2.45;;;22.20;84.80;;;;;;10127918;28;20036;-58
2021/06/20 20:55:39;;;;;;;6.03;1.63;;;22.00;84.30;;;;;;10128325;28;20031;-69
2021/06/20 21:00:36;;;;;;;7.88;2.10;;;21.90;84.90;;;;;;10127012;28;20402;-62
2021/06/20 21:05:29;;;;;;;4.05;1.48;;;21.90;84.90;;;;;;10127942;28;20127;-64
2021/06/20 21:10:20;;;;;;;3.75;1.08;;;22.00;84.80;;;;;;10127489;28;20036;-60
2021/06/20 21:15:12;;;;;;;4.00;1.40;;;22.00;84.70;;;;;;10124228;28;20109;-60
2021/06/20 21:20:05;;;;;;;3.67;1.83;;;22.00;84.60;;;;;;10126953;28;20329;-62
2021/06/20 21:24:56;;;;;;;6.78;2.40;;;22.00;84.60;;;;;;10126867;28;20060;-61
2021/06/20 21:29:47;;;;;;;4.90;1.45;;;21.70;85.30;;;;;;10125162;28;20079;-61
2021/06/20 21:34:38;;;;;;;5.03;1.38;;;21.60;85.60;;;;;;10126835;28;20036;-64
2021/06/20 21:39:30;;;;;;;5.82;1.25;;;21.50;84.90;;;;;;10127253;28;20487;-59
2021/06/20 21:44:20;;;;;;;6.13;1.30;;;21.30;84.80;;;;;;10123561;28;20028;-60
2021/06/20 21:49:13;;;;;;;2.50;1.17;;;21.10;85.00;;;;;;10135034;28;20044;-71
2021/06/20 21:54:04;;;;;;;7.55;2.67;;;20.90;85.80;;;;;;10124169;28;20108;-62
2021/06/20 21:58:55;;;;;;;5.40;1.58;;;20.80;86.10;;;;;;10126503;28;20535;-64
2021/06/20 22:03:46;;;;;;;5.18;1.95;;;20.80;85.70;;;;;;10126005;28;20107;-60
2021/06/20 22:08:37;;;;;;;5.45;1.95;;;20.80;85.80;;;;;;10120785;28;20204;-62
2021/06/20 22:13:28;;;;;;;4.20;1.15;;;20.90;85.40;;;;;;10124912;28;20476;-67
2021/06/20 22:18:18;;;;;;;3.42;1.40;;;20.70;85.70;;;;;;10124669;28;20455;-64
2021/06/20 22:23:10;;;;;;;8.18;1.70;;;20.80;85.60;;;;;;10125261;28;20043;-66
2021/06/20 22:28:01;;;;;;;4.97;1.60;;;20.60;85.80;;;;;;10125079;28;20053;-66
2021/06/20 22:33:02;;;;;;;6.53;1.30;;;20.70;85.70;;;;;;10122621;28;20678;-65
2021/06/20 22:37:53;;;;;;;5.07;2.05;;;20.80;85.30;;;;;;10126049;28;20070;-62
2021/06/20 22:42:45;;;;;;;2.92;1.27;;;20.70;85.60;;;;;;10124149;28;20281;-66
2021/06/20 22:47:35;;;;;;;7.85;2.17;;;20.70;85.50;;;;;;10122419;28;20044;-56
2021/06/20 22:52:26;;;;;;;3.47;1.73;;;20.70;85.50;;;;;;10125783;28;20043;-63
2021/06/20 22:57:17;;;;;;;4.30;1.60;;;20.70;85.40;;;;;;10122869;28;20017;-62
2021/06/20 23:02:08;;;;;;;2.28;1.30;;;20.60;85.80;;;;;;10125805;28;20044;-60
2021/06/20 23:06:58;;;;;;;4.20;1.38;;;20.50;86.00;;;;;;10125547;28;20668;-63
2021/06/20 23:11:49;;;;;;;4.90;1.33;;;20.50;86.10;;;;;;10118865;28;20099;-58
2021/06/20 23:16:40;;;;;;;4.93;1.85;;;20.70;85.40;;;;;;10124577;28;20026;-58
2021/06/20 23:21:31;;;;;;;3.95;1.45;;;20.70;85.40;;;;;;10123070;28;20512;-62
2021/06/20 23:26:21;;;;;;;2.67;1.30;;;20.70;85.40;;;;;;10121101;28;20441;-58
2021/06/20 23:31:12;;;;;;;2.25;1.08;;;20.70;85.20;;;;;;10124906;28;20098;-60
2021/06/20 23:36:05;;;;;;;4.32;0.90;;;20.70;85.30;;;;;;10120775;28;20020;-57
2021/06/20 23:40:56;;;;;;;4.15;1.45;;;20.80;85.10;;;;;;10122811;28;20487;-57
2021/06/20 23:45:47;;;;;;;3.03;1.35;;;20.80;85.10;;;;;;10123292;28;20025;-54
2021/06/20 23:50:39;;;;;;;3.92;2.10;;;20.70;85.20;;;;;;10121349;28;20036;-62
2021/06/20 23:55:30;;;;;;;5.95;2.28;;;20.70;85.40;;;;;;10125085;28;20244;-58
